createdAt,value
2023-02-14T00:00:15.279Z,5.10
2023-02-14T00:03:06.311Z,7.28
2023-02-14T00:05:35.912Z,4.10
2023-02-14T00:08:05.001Z,5.32
2023-02-14T00:10:34.652Z,5.90
2023-02-14T00:13:03.914Z,4.80
2023-02-14T00:15:32.318Z,6.25
2023-02-14T00:18:03.589Z,6.22
2023-02-14T00:20:34.413Z,5.57
2023-02-14T00:23:03.644Z,6.10
2023-02-14T00:25:34.478Z,4.43
2023-02-14T00:28:03.831Z,5.68
2023-02-14T00:30:33.241Z,7.13
2023-02-14T00:33:03.957Z,4.57
2023-02-14T00:35:38.428Z,3.95
2023-02-14T00:38:07.888Z,6.10
2023-02-14T00:40:37.245Z,5.15
2023-02-14T00:43:06.468Z,4.30
2023-02-14T00:45:35.906Z,4.80
2023-02-14T00:48:05.538Z,7.10
2023-02-14T00:50:36.335Z,5.05
2023-02-14T00:53:05.523Z,6.90
2023-02-14T00:55:35.330Z,6.38
2023-02-14T00:58:04.607Z,4.35
2023-02-14T01:00:34.101Z,6.97
2023-02-14T01:03:03.497Z,4.90
2023-02-14T01:05:32.949Z,6.07
2023-02-14T01:08:03.573Z,5.07
2023-02-14T01:10:33.237Z,4.90
2023-02-14T01:13:02.434Z,6.75
2023-02-14T01:18:02.110Z,7.05
2023-02-14T01:20:31.509Z,6.47
2023-02-14T01:23:02.410Z,4.15
2023-02-14T01:25:31.980Z,5.32
2023-02-14T01:28:01.863Z,4.85
2023-02-14T01:30:31.405Z,6.30
2023-02-14T01:33:00.962Z,4.70
2023-02-14T01:35:30.306Z,5.97
2023-02-14T01:38:00.386Z,4.95
2023-02-14T01:40:31.350Z,3.70
2023-02-14T01:43:00.499Z,5.72
2023-02-14T01:45:30.900Z,4.22
2023-02-14T01:48:00.221Z,4.10
2023-02-14T01:50:35.537Z,4.47
2023-02-14T01:53:10.874Z,4.95
2023-02-14T01:55:47.640Z,4.70
2023-02-14T01:58:20.334Z,3.85
2023-02-14T02:01:00.357Z,7.30
2023-02-14T02:03:34.042Z,4.25
2023-02-14T02:06:12.638Z,3.47
2023-02-14T02:08:48.673Z,5.53
2023-02-14T02:11:19.653Z,5.03
2023-02-14T02:13:49.609Z,5.57
2023-02-14T02:16:47.166Z,6.63
2023-02-14T02:19:42.925Z,5.38
2023-02-14T02:22:54.545Z,3.38
2023-02-14T02:25:54.505Z,3.50
2023-02-14T02:28:52.576Z,5.00
2023-02-14T02:31:54.994Z,4.85
2023-02-14T02:35:07.977Z,5.35
2023-02-14T02:37:48.129Z,3.42
2023-02-14T02:40:37.635Z,5.70
2023-02-14T02:43:19.456Z,4.38
2023-02-14T02:46:13.022Z,5.70
2023-02-14T02:48:48.687Z,4.93
2023-02-14T02:51:46.516Z,5.70
2023-02-14T02:54:21.611Z,5.28
2023-02-14T02:56:56.118Z,4.40
2023-02-14T02:59:28.861Z,6.10
2023-02-14T03:02:05.831Z,4.68
2023-02-14T03:04:54.206Z,5.10
2023-02-14T03:07:36.454Z,3.65
2023-02-14T03:10:15.790Z,3.92
2023-02-14T03:13:07.984Z,6.65
2023-02-14T03:15:53.157Z,3.53
2023-02-14T03:19:11.178Z,6.70
2023-02-14T03:21:48.284Z,4.30
2023-02-14T03:24:26.472Z,4.93
2023-02-14T03:27:05.830Z,6.50
2023-02-14T03:29:45.686Z,5.97
2023-02-14T03:32:21.035Z,7.10
2023-02-14T03:34:59.275Z,6.25
2023-02-14T03:37:34.011Z,5.10
2023-02-14T03:40:11.173Z,7.20
2023-02-14T03:42:47.484Z,6.95
2023-02-14T03:45:27.712Z,4.50
2023-02-14T03:48:01.518Z,6.35
2023-02-14T03:50:32.495Z,5.32
2023-02-14T03:53:03.132Z,5.95
2023-02-14T03:55:37.376Z,5.40
2023-02-14T03:58:16.520Z,5.43
2023-02-14T04:00:49.213Z,5.55
2023-02-14T04:03:20.849Z,5.80
2023-02-14T04:05:52.462Z,4.82
2023-02-14T04:08:27.118Z,5.35
2023-02-14T04:11:00.375Z,5.70
2023-02-14T04:13:31.491Z,4.68
2023-02-14T04:16:00.969Z,6.95
2023-02-14T04:18:47.325Z,4.97
2023-02-14T04:21:16.915Z,8.48
2023-02-14T04:23:46.010Z,6.13
2023-02-14T04:26:15.468Z,5.53
2023-02-14T04:28:45.891Z,6.10
2023-02-14T04:31:15.966Z,4.45
2023-02-14T04:36:15.664Z,4.90
2023-02-14T04:38:44.704Z,5.40
2023-02-14T04:41:14.330Z,5.90
2023-02-14T04:43:44.834Z,5.13
2023-02-14T04:46:14.303Z,5.57
2023-02-14T04:48:43.610Z,5.40
2023-02-14T04:51:13.017Z,5.38
2023-02-14T04:53:43.264Z,6.43
2023-02-14T04:56:13.247Z,5.25
2023-02-14T04:58:42.497Z,3.92
2023-02-14T05:01:13.416Z,5.30
2023-02-14T05:03:42.594Z,6.55
2023-02-14T05:06:12.026Z,5.85
2023-02-14T05:08:41.324Z,6.13
2023-02-14T05:11:10.808Z,5.72
2023-02-14T05:13:40.041Z,3.17
2023-02-14T05:16:09.633Z,5.32
2023-02-14T05:18:40.434Z,3.95
2023-02-14T05:21:09.916Z,4.68
2023-02-14T05:23:39.257Z,4.78
2023-02-14T05:26:09.209Z,6.07
2023-02-14T05:28:40.975Z,6.97
2023-02-14T05:31:11.055Z,5.57
2023-02-14T05:33:41.628Z,6.07
2023-02-14T05:36:12.924Z,5.32
2023-02-14T05:38:42.214Z,7.70
2023-02-14T05:41:11.610Z,5.30
2023-02-14T05:43:40.973Z,5.28
2023-02-14T05:46:10.405Z,4.78
2023-02-14T05:48:41.131Z,6.88
2023-02-14T05:51:12.008Z,7.10
2023-02-14T05:53:41.583Z,6.05
2023-02-14T05:56:11.209Z,6.45
2023-02-14T05:58:40.407Z,4.25
2023-02-14T06:01:09.793Z,5.68
2023-02-14T06:03:40.380Z,7.10
2023-02-14T06:06:10.056Z,3.28
2023-02-14T06:08:39.128Z,4.75
2023-02-14T06:11:08.620Z,5.35
2023-02-14T06:13:37.710Z,3.45
2023-02-14T06:16:07.679Z,4.28
2023-02-14T06:18:36.999Z,4.63
2023-02-14T06:21:08.000Z,5.63
2023-02-14T06:23:37.413Z,4.10
2023-02-14T06:26:06.924Z,2.97
2023-02-14T06:28:35.957Z,5.00
2023-02-14T06:31:05.559Z,5.97
2023-02-14T06:33:34.710Z,8.10
2023-02-14T06:36:04.214Z,5.05
2023-02-14T06:38:34.776Z,6.18
2023-02-14T06:41:06.077Z,4.50
2023-02-14T06:43:35.641Z,5.13
2023-02-14T06:46:05.648Z,4.25
2023-02-14T06:51:04.347Z,4.93
2023-02-14T06:53:35.192Z,3.95
2023-02-14T06:56:05.243Z,4.78
2023-02-14T07:01:04.399Z,3.67
2023-02-14T07:03:33.793Z,4.32
2023-02-14T07:06:03.569Z,6.07
2023-02-14T07:08:34.228Z,6.95
2023-02-14T07:11:04.364Z,5.03
2023-02-14T07:13:33.668Z,4.43
2023-02-14T07:16:03.045Z,4.10
2023-02-14T07:18:32.280Z,4.63
2023-02-14T07:21:01.992Z,3.67
2023-02-14T07:23:31.450Z,5.70
2023-02-14T07:26:02.200Z,5.55
2023-02-14T07:28:31.725Z,3.72
2023-02-14T07:31:02.334Z,5.40
2023-02-14T07:33:32.007Z,4.88
2023-02-14T07:36:05.072Z,5.22
2023-02-14T07:38:34.531Z,4.93
2023-02-14T07:41:05.581Z,2.75
2023-02-14T07:43:35.388Z,5.28
2023-02-14T07:46:05.180Z,5.35
2023-02-14T07:48:34.713Z,5.78
2023-02-14T07:51:04.466Z,6.75
2023-02-14T07:53:33.639Z,6.47
2023-02-14T07:56:04.511Z,4.80
2023-02-14T07:58:33.746Z,5.25
2023-02-14T08:01:03.223Z,4.75
2023-02-14T08:03:32.384Z,4.55
2023-02-14T08:06:01.720Z,5.20
2023-02-14T08:08:32.835Z,3.83
2023-02-14T08:11:02.737Z,6.28
2023-02-14T08:16:06.386Z,4.75
2023-02-14T08:18:38.314Z,6.05
2023-02-14T08:21:10.454Z,4.03
2023-02-14T08:23:40.174Z,5.47
2023-02-14T08:26:09.904Z,7.75
2023-02-14T08:28:40.441Z,6.80
2023-02-14T08:31:10.071Z,4.85
2023-02-14T08:33:39.404Z,4.80
2023-02-14T08:36:08.842Z,6.85
2023-02-14T08:38:38.008Z,5.82
2023-02-14T08:41:09.045Z,5.60
2023-02-14T08:43:39.995Z,6.10
2023-02-14T08:46:09.955Z,4.45
2023-02-14T08:48:39.532Z,4.80
2023-02-14T08:51:10.233Z,6.50
2023-02-14T08:53:39.479Z,6.90
2023-02-14T08:56:11.149Z,6.50
2023-02-14T08:58:42.469Z,6.40
2023-02-14T09:01:13.864Z,6.07
2023-02-14T09:03:43.570Z,6.38
2023-02-14T09:06:16.184Z,6.40
2023-02-14T09:08:46.861Z,5.00
2023-02-14T09:11:19.879Z,5.55
2023-02-14T09:13:51.532Z,6.63
2023-02-14T09:16:22.453Z,5.25
2023-02-14T09:18:53.000Z,5.60
2023-02-14T09:21:24.526Z,6.13
2023-02-14T09:23:54.246Z,7.40
2023-02-14T09:26:24.331Z,7.70
2023-02-14T09:28:55.025Z,3.63
2023-02-14T09:31:26.498Z,4.68
2023-02-14T09:33:56.348Z,9.00
2023-02-14T09:36:25.925Z,6.25
2023-02-14T09:38:55.218Z,7.28
2023-02-14T09:44:14.350Z,5.95
2023-02-14T09:46:51.550Z,5.68
2023-02-14T09:49:30.960Z,6.25
2023-02-14T09:54:34.706Z,5.70
2023-02-14T09:57:10.155Z,7.43
2023-02-14T09:59:47.767Z,5.50
2023-02-14T10:02:40.626Z,6.18
2023-02-14T10:05:16.140Z,7.32
2023-02-14T10:07:59.805Z,5.68
2023-02-14T10:10:34.287Z,6.53
2023-02-14T10:13:09.411Z,5.70
2023-02-14T10:15:44.130Z,4.95
2023-02-14T10:18:21.983Z,7.43
2023-02-14T10:20:53.859Z,7.25
2023-02-14T10:23:31.746Z,6.05
2023-02-14T10:26:04.390Z,5.97
2023-02-14T10:28:36.366Z,8.13
2023-02-14T10:31:20.688Z,7.00
2023-02-14T10:33:57.834Z,5.80
2023-02-14T10:36:52.730Z,5.85
2023-02-14T10:39:34.382Z,6.68
2023-02-14T10:42:14.648Z,6.25
2023-02-14T10:44:51.851Z,6.18
2023-02-14T10:47:34.701Z,6.57
2023-02-14T10:50:15.515Z,6.38
2023-02-14T10:52:53.258Z,6.93
2023-02-14T10:55:32.991Z,6.72
2023-02-14T10:58:05.180Z,5.53
2023-02-14T11:00:38.244Z,7.72
2023-02-14T11:03:10.900Z,8.65
2023-02-14T11:05:46.732Z,5.72
2023-02-14T11:08:19.833Z,5.72
2023-02-14T11:10:49.990Z,6.22
2023-02-14T11:13:39.474Z,5.28
2023-02-14T11:16:11.697Z,6.38
2023-02-14T11:18:43.292Z,7.45
2023-02-14T11:21:15.402Z,4.55
2023-02-14T11:23:46.404Z,7.03
2023-02-14T11:26:24.629Z,5.72
2023-02-14T11:28:57.664Z,4.65
2023-02-14T11:31:30.355Z,5.68
2023-02-14T11:34:04.989Z,5.47
2023-02-14T11:36:42.381Z,6.53
2023-02-14T11:39:29.429Z,8.57
2023-02-14T11:42:01.156Z,7.28
2023-02-14T11:44:33.120Z,7.15
2023-02-14T11:47:19.052Z,8.10
2023-02-14T11:49:59.052Z,5.90
2023-02-14T11:52:31.742Z,5.28
2023-02-14T11:55:01.652Z,9.18
2023-02-14T11:57:38.769Z,5.95
2023-02-14T12:00:18.297Z,7.30
2023-02-14T12:05:24.806Z,7.13
2023-02-14T12:07:56.879Z,5.32
2023-02-14T12:10:29.241Z,7.28
2023-02-14T12:13:02.312Z,8.35
2023-02-14T12:15:36.785Z,7.22
2023-02-14T12:18:50.301Z,5.88
2023-02-14T12:21:40.183Z,5.88
2023-02-14T12:24:28.197Z,6.57
2023-02-14T12:27:04.140Z,7.18
2023-02-14T12:29:39.199Z,9.35
2023-02-14T12:32:21.463Z,8.18
2023-02-14T12:34:52.215Z,7.78
2023-02-14T12:37:41.742Z,7.00
2023-02-14T12:40:21.660Z,9.80
2023-02-14T12:45:50.398Z,6.18
2023-02-14T12:48:30.218Z,4.65
2023-02-14T12:51:07.965Z,5.25
2023-02-14T12:53:52.411Z,7.95
2023-02-14T12:56:33.845Z,5.45
2023-02-14T12:59:12.965Z,5.75
2023-02-14T13:02:09.675Z,3.63
2023-02-14T13:04:57.908Z,6.40
2023-02-14T13:08:04.469Z,5.53
2023-02-14T13:10:50.578Z,6.35
2023-02-14T13:13:27.580Z,5.53
2023-02-14T13:16:08.688Z,5.40
2023-02-14T13:18:49.437Z,4.95
2023-02-14T13:21:23.566Z,7.80
2023-02-14T13:23:59.438Z,6.03
2023-02-14T13:26:35.378Z,7.25
2023-02-14T13:29:08.248Z,8.15
2023-02-14T13:31:39.806Z,5.45
2023-02-14T13:34:21.043Z,7.68
2023-02-14T13:36:50.696Z,6.30
2023-02-14T13:42:10.135Z,4.20
2023-02-14T13:44:48.087Z,7.55
2023-02-14T13:47:23.222Z,5.03
2023-02-14T13:49:59.765Z,8.52
2023-02-14T13:52:43.677Z,6.45
2023-02-14T13:55:19.805Z,5.95
2023-02-14T13:58:03.321Z,4.78
2023-02-14T14:00:44.794Z,6.60
2023-02-14T14:03:42.709Z,5.53
2023-02-14T14:06:14.252Z,4.75
2023-02-14T14:08:49.322Z,4.60
2023-02-14T14:11:59.745Z,6.28
2023-02-14T14:14:39.933Z,10.40
2023-02-14T14:17:26.176Z,7.00
2023-02-14T14:19:58.009Z,9.73
2023-02-14T14:22:29.023Z,6.43
2023-02-14T14:25:01.158Z,10.35
2023-02-14T14:27:36.206Z,9.68
2023-02-14T14:30:17.120Z,8.93
2023-02-14T14:32:47.016Z,9.45
2023-02-14T14:35:21.053Z,10.13
2023-02-14T14:37:52.640Z,8.68
2023-02-14T14:40:26.595Z,8.68
2023-02-14T14:43:00.936Z,5.82
2023-02-14T14:45:33.038Z,8.05
2023-02-14T14:48:12.682Z,4.40
2023-02-14T14:50:46.426Z,5.15
2023-02-14T14:53:23.976Z,6.57
2023-02-14T14:55:54.823Z,6.22
2023-02-14T14:58:37.260Z,4.40
2023-02-14T15:01:21.406Z,5.40
2023-02-14T15:03:52.886Z,4.78
2023-02-14T15:06:23.494Z,8.52
2023-02-14T15:08:53.245Z,6.80
2023-02-14T15:11:43.457Z,6.45
2023-02-14T15:14:20.284Z,8.98
2023-02-14T15:16:57.566Z,9.02
2023-02-14T15:19:34.963Z,9.55
2023-02-14T15:22:06.539Z,6.80
2023-02-14T15:24:39.200Z,7.07
2023-02-14T15:27:16.713Z,8.80
2023-02-14T15:29:56.602Z,10.60
2023-02-14T15:32:31.439Z,8.55
2023-02-14T15:35:10.283Z,5.55
2023-02-14T15:37:42.096Z,6.75
2023-02-14T15:42:50.709Z,7.05
2023-02-14T15:45:23.927Z,7.32
2023-02-14T15:47:56.351Z,8.68
2023-02-14T15:50:28.221Z,8.32
2023-02-14T15:53:03.825Z,6.85
2023-02-14T15:55:34.679Z,7.53
2023-02-14T15:58:06.667Z,7.65
2023-02-14T16:00:37.338Z,8.43
2023-02-14T16:03:13.112Z,7.38
2023-02-14T16:05:48.859Z,10.00
2023-02-14T16:08:29.568Z,7.07
2023-02-14T16:11:05.469Z,6.97
2023-02-14T16:13:37.322Z,8.27
2023-02-14T16:16:11.072Z,7.35
2023-02-14T16:18:47.668Z,10.02
2023-02-14T16:21:20.107Z,8.75
2023-02-14T16:24:05.011Z,10.57
2023-02-14T16:26:35.368Z,11.45
2023-02-14T16:29:04.953Z,9.25
2023-02-14T16:31:35.549Z,8.77
2023-02-14T16:34:11.409Z,10.52
2023-02-14T16:36:41.925Z,9.98
2023-02-14T16:39:17.623Z,9.55
2023-02-14T16:41:49.532Z,8.07
2023-02-14T16:44:20.541Z,8.73
2023-02-14T16:46:50.665Z,8.25
2023-02-14T16:51:59.166Z,9.75
2023-02-14T16:54:28.850Z,9.52
2023-02-14T16:59:29.126Z,10.38
2023-02-14T17:02:00.137Z,10.85
2023-02-14T17:04:31.755Z,12.63
2023-02-14T17:07:06.167Z,12.73
2023-02-14T17:09:40.881Z,13.95
2023-02-14T17:12:19.039Z,11.57
2023-02-14T17:14:51.153Z,13.70
2023-02-14T17:17:21.245Z,9.93
2023-02-14T17:19:52.966Z,9.73
2023-02-14T17:22:24.758Z,9.88
2023-02-14T17:24:56.144Z,9.25
2023-02-14T17:27:27.045Z,11.80
2023-02-14T17:29:56.200Z,11.93
2023-02-14T17:32:25.621Z,11.88
2023-02-14T17:34:56.343Z,10.75
2023-02-14T17:37:25.945Z,11.57
2023-02-14T17:39:55.433Z,10.10
2023-02-14T17:42:24.997Z,8.48
2023-02-14T17:44:54.070Z,9.48
2023-02-14T17:47:23.531Z,10.00
2023-02-14T17:49:52.600Z,13.35
2023-02-14T17:52:24.461Z,13.00
2023-02-14T17:54:53.774Z,16.27
2023-02-14T17:57:23.141Z,14.63
2023-02-14T17:59:52.369Z,13.55
2023-02-14T18:02:21.957Z,13.25
2023-02-14T18:04:54.770Z,14.73
2023-02-14T18:07:27.226Z,13.75
2023-02-14T18:09:56.674Z,14.02
2023-02-14T18:12:26.091Z,14.32
2023-02-14T18:14:57.676Z,13.80
2023-02-14T18:17:27.087Z,14.30
2023-02-14T18:19:56.687Z,14.35
2023-02-14T18:24:59.270Z,12.45
2023-02-14T18:27:32.540Z,12.93
2023-02-14T18:30:01.974Z,14.23
2023-02-14T18:32:31.410Z,12.80
2023-02-14T18:35:00.638Z,11.55
2023-02-14T18:37:31.413Z,13.05
2023-02-14T18:40:00.963Z,13.07
2023-02-14T18:44:59.496Z,12.43
2023-02-14T18:47:29.055Z,13.57
2023-02-14T18:49:58.149Z,12.93
2023-02-14T18:52:28.022Z,8.38
2023-02-14T18:55:00.441Z,13.32
2023-02-14T18:57:30.019Z,16.38
2023-02-14T18:59:59.115Z,12.05
2023-02-14T19:02:30.662Z,11.55
2023-02-14T19:04:59.939Z,11.60
2023-02-14T19:07:29.771Z,10.07
2023-02-14T19:10:01.323Z,9.93
2023-02-14T19:12:35.238Z,10.73
2023-02-14T19:15:06.197Z,10.52
2023-02-14T19:17:39.875Z,10.55
2023-02-14T19:20:10.353Z,9.35
2023-02-14T19:22:46.934Z,8.98
2023-02-14T19:25:17.625Z,13.80
2023-02-14T19:27:49.385Z,13.00
2023-02-14T19:30:19.628Z,13.35
2023-02-14T19:32:51.508Z,12.18
2023-02-14T19:35:20.893Z,12.57
2023-02-14T19:37:54.031Z,12.32
2023-02-14T19:40:24.626Z,12.80
2023-02-14T19:42:56.883Z,12.80
2023-02-14T19:45:27.359Z,13.63
2023-02-14T19:47:59.913Z,13.75
2023-02-14T19:50:30.823Z,11.45
2023-02-14T19:53:02.859Z,10.73
2023-02-14T19:55:33.381Z,11.40
2023-02-14T19:58:05.427Z,10.80
2023-02-14T20:00:37.208Z,12.15
2023-02-14T20:03:10.231Z,11.88
2023-02-14T20:05:42.691Z,10.85
2023-02-14T20:08:12.887Z,10.80
2023-02-14T20:13:13.458Z,9.90
2023-02-14T20:15:45.461Z,11.38
2023-02-14T20:18:15.454Z,11.68
2023-02-14T20:21:03.061Z,12.88
2023-02-14T20:23:35.325Z,12.20
2023-02-14T20:26:06.165Z,10.40
2023-02-14T20:28:36.226Z,10.48
2023-02-14T20:31:09.333Z,11.85
2023-02-14T20:33:39.845Z,11.82
2023-02-14T20:38:39.818Z,13.30
2023-02-14T20:41:13.132Z,10.85
2023-02-14T20:43:44.902Z,18.02
2023-02-14T20:46:14.553Z,16.58
2023-02-14T20:51:14.991Z,12.13
2023-02-14T20:53:48.015Z,12.65
2023-02-14T20:56:18.813Z,12.02
2023-02-14T20:58:48.547Z,13.48
2023-02-14T21:01:21.748Z,11.50
2023-02-14T21:03:52.921Z,12.40
2023-02-14T21:06:24.750Z,13.70
2023-02-14T21:08:54.289Z,13.77
2023-02-14T21:11:26.996Z,14.38
2023-02-14T21:13:59.442Z,13.20
2023-02-14T21:16:31.962Z,14.95
2023-02-14T21:19:02.117Z,12.10
2023-02-14T21:24:08.109Z,12.10
2023-02-14T21:26:40.723Z,12.80
2023-02-14T21:29:11.361Z,13.10
2023-02-14T21:31:41.170Z,11.43
2023-02-14T21:34:10.593Z,12.25
2023-02-14T21:36:39.742Z,12.13
2023-02-14T21:39:09.270Z,11.07
2023-02-14T21:41:39.912Z,12.57
2023-02-14T21:44:10.725Z,13.23
2023-02-14T21:46:41.153Z,12.13
2023-02-14T21:49:31.146Z,12.48
2023-02-14T21:52:02.030Z,11.80
2023-02-14T21:54:31.828Z,11.27
2023-02-14T21:57:02.276Z,13.02
2023-02-14T21:59:33.070Z,13.60
2023-02-14T22:02:02.372Z,13.63
2023-02-14T22:04:31.806Z,14.35
2023-02-14T22:07:01.727Z,11.73
2023-02-14T22:09:31.681Z,14.65
2023-02-14T22:12:02.599Z,13.30
2023-02-14T22:14:32.230Z,13.88
2023-02-14T22:17:01.459Z,13.15
2023-02-14T22:19:31.022Z,15.38
2023-02-14T22:22:03.421Z,13.05
2023-02-14T22:24:33.580Z,14.13
2023-02-14T22:27:04.666Z,11.93
2023-02-14T22:29:34.896Z,12.60
2023-02-14T22:32:04.753Z,12.35
2023-02-14T22:34:34.537Z,14.40
2023-02-14T22:37:05.651Z,13.80
2023-02-14T22:39:35.635Z,12.85
2023-02-14T22:42:07.329Z,11.18
2023-02-14T22:44:36.841Z,13.75
2023-02-14T22:47:05.903Z,13.10
2023-02-14T22:49:35.239Z,14.38
2023-02-14T22:52:04.412Z,13.55
2023-02-14T22:54:33.883Z,15.00
2023-02-14T22:57:03.076Z,13.82
2023-02-14T22:59:34.138Z,14.27
2023-02-14T23:02:03.375Z,15.20
2023-02-14T23:04:32.895Z,14.63
2023-02-14T23:07:02.464Z,13.63
2023-02-14T23:09:32.062Z,13.43
2023-02-14T23:12:01.208Z,15.52
2023-02-14T23:14:47.689Z,14.63
2023-02-14T23:17:35.565Z,14.07
2023-02-14T23:20:22.652Z,15.43
2023-02-14T23:22:51.751Z,14.77
2023-02-14T23:25:21.618Z,16.35
2023-02-14T23:27:50.813Z,14.60
2023-02-14T23:30:21.158Z,15.73
2023-02-14T23:32:51.747Z,14.95
2023-02-14T23:35:21.087Z,15.65
2023-02-14T23:37:50.266Z,14.70
2023-02-14T23:40:20.430Z,14.02
2023-02-14T23:42:49.640Z,16.55
2023-02-14T23:45:36.896Z,14.60
2023-02-14T23:48:07.715Z,15.48
2023-02-14T23:50:37.159Z,13.88
2023-02-14T23:53:06.468Z,15.63
2023-02-14T23:55:36.338Z,15.80
2023-02-14T23:58:05.825Z,14.73
